Time;durP1;ratioP1;P1;durP2;ratioP2;P2;SDS_P1;SDS_P2;PMS_P1;PMS_P2;Temp;Humidity;BMP_temperature;BMP_pressure;BME280_temperature;BME280_humidity;BME280_pressure;Samples;Min_cycle;Max_cycle;Signal;HPM_P1;HPM_P2
2022/06/15 00:01:08;;;;;;;;;;;;;;;;;;4327834;33;19943;-69
2022/06/15 00:03:33;;;;;;;;;;;;;;;;;;4318443;33;20290;-68
2022/06/15 00:05:58;;;;;;;;;;;;;;;;;;4305207;33;19951;-68
2022/06/15 00:08:23;;;;;;;;;;;;;;;;;;4318022;33;19940;-69
2022/06/15 00:10:48;;;;;;;;;;;;;;;;;;4317903;33;19935;-68
2022/06/15 00:13:13;;;;;;;;;;;;;;;;;;4317481;33;19978;-69
2022/06/15 00:15:39;;;;;;;;;;;;;;;;;;4304565;33;19986;-68
2022/06/15 00:18:04;;;;;;;;;;;;;;;;;;4316666;33;19950;-69
2022/06/15 00:20:29;;;;;;;;;;;;;;;;;;4318092;33;20295;-69
2022/06/15 00:22:54;;;;;;;;;;;;;;;;;;4316263;33;19950;-69
2022/06/15 00:25:19;;;;;;;;;;;;;;;;;;4316386;33;19974;-69
2022/06/15 00:27:44;;;;;;;;;;;;;;;;;;4302769;33;19984;-69
2022/06/15 00:30:09;;;;;;;;;;;;;;;;;;4317673;33;20311;-69
2022/06/15 00:32:34;;;;;;;;;;;;;;;;;;4329700;33;19939;-69
2022/06/15 00:34:59;;;;;;;;;;;;;;;;;;4332379;33;19998;-69
2022/06/15 00:37:25;;;;;;;;;;;;;;;;;;4317530;33;20381;-68
2022/06/15 00:39:50;;;;;;;;;;;;;;;;;;4330496;33;20307;-68
2022/06/15 00:42:15;;;;;;;;;;;;;;;;;;4331501;33;19999;-68
2022/06/15 00:44:42;;;;;;;;;;;;;;;;;;4331330;33;19959;-68
2022/06/15 00:47:08;;;;;;;;;;;;;;;;;;4319155;33;19955;-68
2022/06/15 00:49:34;;;;;;;;;;;;;;;;;;4330829;33;20288;-68
2022/06/15 00:51:59;;;;;;;;;;;;;;;;;;4332062;33;19935;-69
2022/06/15 00:54:24;;;;;;;;;;;;;;;;;;4332560;33;19946;-68
2022/06/15 00:56:49;;;;;;;;;;;;;;;;;;4332719;33;19943;-68
2022/06/15 00:59:14;;;;;;;;;;;;;;;;;;4330602;33;20302;-68
2022/06/15 01:01:40;;;;;;;;;;;;;;;;;;4320630;33;19974;-68
2022/06/15 01:04:05;;;;;;;;;;;;;;;;;;4315905;33;19987;-68
2022/06/15 01:06:30;;;;;;;;;;;;;;;;;;4303022;33;19991;-68
2022/06/15 01:08:55;;;;;;;;;;;;;;;;;;4317496;33;20341;-68
2022/06/15 01:11:21;;;;;;;;;;;;;;;;;;4317528;33;19954;-69
2022/06/15 01:13:46;;;;;;;;;;;;;;;;;;4302798;33;19975;-68
2022/06/15 01:16:11;;;;;;;;;;;;;;;;;;4303338;33;19950;-69
2022/06/15 01:18:37;;;;;;;;;;;;;;;;;;4317323;33;19940;-68
2022/06/15 01:21:02;;;;;;;;;;;;;;;;;;4317402;33;19936;-69
2022/06/15 01:23:27;;;;;;;;;;;;;;;;;;4304031;33;19955;-68
2022/06/15 01:25:52;;;;;;;;;;;;;;;;;;4304164;33;19939;-68
2022/06/15 01:28:18;;;;;;;;;;;;;;;;;;4316423;33;19940;-67
2022/06/15 01:30:43;;;;;;;;;;;;;;;;;;4320930;33;19935;-68
2022/06/15 01:33:08;;;;;;;;;;;;;;;;;;4332243;33;19935;-68
2022/06/15 01:35:33;;;;;;;;;;;;;;;;;;4332256;33;19947;-68
2022/06/15 01:37:58;;;;;;;;;;;;;;;;;;4331591;33;19958;-68
2022/06/15 01:40:23;;;;;;;;;;;;;;;;;;4330854;33;20368;-67
2022/06/15 01:42:48;;;;;;;;;;;;;;;;;;4330434;33;19939;-67
2022/06/15 01:45:13;;;;;;;;;;;;;;;;;;4331745;33;19951;-67
2022/06/15 01:47:39;;;;;;;;;;;;;;;;;;4330430;33;19935;-69
2022/06/15 01:50:04;;;;;;;;;;;;;;;;;;4331658;33;20356;-68
2022/06/15 01:52:29;;;;;;;;;;;;;;;;;;4334439;33;19958;-68
2022/06/15 01:54:54;;;;;;;;;;;;;;;;;;4319508;33;19939;-69
2022/06/15 01:57:19;;;;;;;;;;;;;;;;;;4321227;33;20207;-68
2022/06/15 01:59:44;;;;;;;;;;;;;;;;;;4334586;33;19950;-68
2022/06/15 02:02:09;;;;;;;;;;;;;;;;;;4318372;33;19950;-68
2022/06/15 02:04:34;;;;;;;;;;;;;;;;;;4319710;33;19946;-69
2022/06/15 02:06:59;;;;;;;;;;;;;;;;;;4306413;33;20282;-69
2022/06/15 02:09:24;;;;;;;;;;;;;;;;;;4318733;33;19950;-68
2022/06/15 02:11:49;;;;;;;;;;;;;;;;;;4319684;33;19939;-69
2022/06/15 02:14:15;;;;;;;;;;;;;;;;;;4319520;33;19962;-69
2022/06/15 02:16:40;;;;;;;;;;;;;;;;;;4319892;33;20012;-68
2022/06/15 02:19:05;;;;;;;;;;;;;;;;;;4304466;33;19985;-69
2022/06/15 02:21:30;;;;;;;;;;;;;;;;;;4318737;33;19966;-68
2022/06/15 02:23:56;;;;;;;;;;;;;;;;;;4319622;33;20006;-69
2022/06/15 02:26:21;;;;;;;;;;;;;;;;;;4306308;33;19943;-68
2022/06/15 02:28:46;;;;;;;;;;;;;;;;;;4318122;33;19970;-68
2022/06/15 02:31:11;;;;;;;;;;;;;;;;;;4327397;33;19950;-69
2022/06/15 02:33:36;;;;;;;;;;;;;;;;;;4332581;33;20361;-68
2022/06/15 02:36:02;;;;;;;;;;;;;;;;;;4332897;33;19983;-68
2022/06/15 02:38:27;;;;;;;;;;;;;;;;;;4333665;33;19939;-68
2022/06/15 02:40:52;;;;;;;;;;;;;;;;;;4332634;33;19973;-69
2022/06/15 02:43:17;;;;;;;;;;;;;;;;;;4332090;33;20362;-68
2022/06/15 02:45:42;;;;;;;;;;;;;;;;;;4334060;33;19938;-68
2022/06/15 02:48:07;;;;;;;;;;;;;;;;;;4334032;33;20314;-68
2022/06/15 02:50:32;;;;;;;;;;;;;;;;;;4320707;33;19951;-68
2022/06/15 02:52:58;;;;;;;;;;;;;;;;;;4317738;33;19962;-68
2022/06/15 02:55:23;;;;;;;;;;;;;;;;;;4319033;33;19978;-68
2022/06/15 02:57:48;;;;;;;;;;;;;;;;;;4317603;33;19947;-68
2022/06/15 03:00:13;;;;;;;;;;;;;;;;;;4305692;33;19994;-68
2022/06/15 03:02:38;;;;;;;;;;;;;;;;;;4317927;33;19950;-68
2022/06/15 03:05:03;;;;;;;;;;;;;;;;;;4305263;33;19939;-69
2022/06/15 03:07:28;;;;;;;;;;;;;;;;;;4318476;33;20014;-69
2022/06/15 03:09:54;;;;;;;;;;;;;;;;;;4317065;33;20315;-69
2022/06/15 03:12:19;;;;;;;;;;;;;;;;;;4317779;33;19962;-69
2022/06/15 03:14:44;;;;;;;;;;;;;;;;;;4314298;33;19967;-69
2022/06/15 03:17:09;;;;;;;;;;;;;;;;;;4302823;33;20323;-69
2022/06/15 03:19:34;;;;;;;;;;;;;;;;;;4309317;33;19950;-69
2022/06/15 03:21:59;;;;;;;;;;;;;;;;;;4317390;33;19939;-69
2022/06/15 03:24:25;;;;;;;;;;;;;;;;;;4318660;33;20273;-68
2022/06/15 03:26:50;;;;;;;;;;;;;;;;;;4305309;33;19946;-69
2022/06/15 03:29:15;;;;;;;;;;;;;;;;;;4303965;33;19973;-68
2022/06/15 03:31:40;;;;;;;;;;;;;;;;;;4317616;33;19967;-69
2022/06/15 03:34:05;;;;;;;;;;;;;;;;;;4317105;33;20290;-68
2022/06/15 03:36:30;;;;;;;;;;;;;;;;;;4316820;33;19954;-69
2022/06/15 03:38:55;;;;;;;;;;;;;;;;;;4318181;33;19979;-68
2022/06/15 03:41:20;;;;;;;;;;;;;;;;;;4303773;33;19943;-68
2022/06/15 03:43:45;;;;;;;;;;;;;;;;;;4318516;33;20275;-68
2022/06/15 03:46:11;;;;;;;;;;;;;;;;;;4303151;33;19939;-68
2022/06/15 03:48:36;;;;;;;;;;;;;;;;;;4317503;33;19939;-68
2022/06/15 03:51:01;;;;;;;;;;;;;;;;;;4331032;33;19990;-68
2022/06/15 03:53:26;;;;;;;;;;;;;;;;;;4332909;33;19985;-69
2022/06/15 03:55:51;;;;;;;;;;;;;;;;;;4330906;33;19969;-68
2022/06/15 03:58:16;;;;;;;;;;;;;;;;;;4331255;33;19970;-68
2022/06/15 04:00:41;;;;;;;;;;;;;;;;;;4332083;33;19935;-68
2022/06/15 04:03:06;;;;;;;;;;;;;;;;;;4332591;33;20318;-68
2022/06/15 04:05:32;;;;;;;;;;;;;;;;;;4332203;33;19934;-69
2022/06/15 04:10:41;;;;;;;;;;;;;;;;;;4332388;33;19937;-68
2022/06/15 04:13:06;;;;;;;;;;;;;;;;;;4317309;33;19978;-69
2022/06/15 04:15:31;;;;;;;;;;;;;;;;;;4332474;33;19995;-69
2022/06/15 04:17:57;;;;;;;;;;;;;;;;;;4332758;33;19939;-69
2022/06/15 04:20:36;;;;;;;;;;;;;;;;;;4319842;33;19975;-69
2022/06/15 04:23:01;;;;;;;;;;;;;;;;;;4317965;33;19988;-68
2022/06/15 04:25:27;;;;;;;;;;;;;;;;;;4304534;33;19943;-68
2022/06/15 04:27:52;;;;;;;;;;;;;;;;;;4316284;33;19951;-68
2022/06/15 04:30:17;;;;;;;;;;;;;;;;;;4317485;33;19951;-69
2022/06/15 04:32:42;;;;;;;;;;;;;;;;;;4303548;33;19946;-69
2022/06/15 04:35:07;;;;;;;;;;;;;;;;;;4302727;33;19991;-69
2022/06/15 04:37:32;;;;;;;;;;;;;;;;;;4303575;33;19962;-70
2022/06/15 04:39:57;;;;;;;;;;;;;;;;;;4317496;33;19936;-67
2022/06/15 04:42:22;;;;;;;;;;;;;;;;;;4306495;33;19940;-69
2022/06/15 04:44:47;;;;;;;;;;;;;;;;;;4301420;33;19936;-69
2022/06/15 04:47:12;;;;;;;;;;;;;;;;;;4301684;33;19944;-69
2022/06/15 04:49:37;;;;;;;;;;;;;;;;;;4307147;33;20260;-69
2022/06/15 04:52:03;;;;;;;;;;;;;;;;;;4301270;33;19959;-68
2022/06/15 04:54:28;;;;;;;;;;;;;;;;;;4302882;33;19951;-69
2022/06/15 04:56:53;;;;;;;;;;;;;;;;;;4301855;33;19958;-69
2022/06/15 04:59:18;;;;;;;;;;;;;;;;;;4313640;33;19947;-69
2022/06/15 05:01:43;;;;;;;;;;;;;;;;;;4316246;33;19979;-67
2022/06/15 05:04:08;;;;;;;;;;;;;;;;;;4316944;33;20336;-68
2022/06/15 05:06:33;;;;;;;;;;;;;;;;;;4316932;33;20322;-68
2022/06/15 05:08:58;;;;;;;;;;;;;;;;;;4315989;33;19950;-68
2022/06/15 05:11:26;;;;;;;;;;;;;;;;;;4317552;33;20007;-69
2022/06/15 05:13:51;;;;;;;;;;;;;;;;;;4315639;33;19963;-67
2022/06/15 05:16:16;;;;;;;;;;;;;;;;;;4315878;33;19936;-67
2022/06/15 05:18:42;;;;;;;;;;;;;;;;;;4315093;33;19958;-69
2022/06/15 05:21:07;;;;;;;;;;;;;;;;;;4316442;33;19990;-68
2022/06/15 05:23:32;;;;;;;;;;;;;;;;;;4317198;33;19940;-68
2022/06/15 05:25:57;;;;;;;;;;;;;;;;;;4317633;33;20021;-68
2022/06/15 05:28:22;;;;;;;;;;;;;;;;;;4319311;33;19940;-69
2022/06/15 05:30:47;;;;;;;;;;;;;;;;;;4305233;33;19969;-69
2022/06/15 05:33:12;;;;;;;;;;;;;;;;;;4318097;33;19936;-68
2022/06/15 05:35:37;;;;;;;;;;;;;;;;;;4305192;33;19944;-69
2022/06/15 05:38:02;;;;;;;;;;;;;;;;;;4319526;33;19935;-68
2022/06/15 05:40:27;;;;;;;;;;;;;;;;;;4320055;33;19940;-69
2022/06/15 05:42:52;;;;;;;;;;;;;;;;;;4305852;33;19969;-68
2022/06/15 05:45:18;;;;;;;;;;;;;;;;;;4319299;33;19940;-69
2022/06/15 05:47:43;;;;;;;;;;;;;;;;;;4318348;33;19994;-68
2022/06/15 05:50:08;;;;;;;;;;;;;;;;;;4331083;33;19943;-69
2022/06/15 05:52:33;;;;;;;;;;;;;;;;;;4332517;33;19942;-68
2022/06/15 05:55:00;;;;;;;;;;;;;;;;;;4334084;33;19970;-68
2022/06/15 05:57:25;;;;;;;;;;;;;;;;;;4319014;33;19935;-68
2022/06/15 05:59:50;;;;;;;;;;;;;;;;;;4333418;33;19957;-68
2022/06/15 06:02:15;;;;;;;;;;;;;;;;;;4332614;33;19939;-68
2022/06/15 06:04:40;;;;;;;;;;;;;;;;;;4318751;33;19943;-68
2022/06/15 06:07:06;;;;;;;;;;;;;;;;;;4332253;33;19953;-68
2022/06/15 06:09:31;;;;;;;;;;;;;;;;;;4318497;33;20360;-68
2022/06/15 06:11:56;;;;;;;;;;;;;;;;;;4333551;33;19979;-68
2022/06/15 06:14:21;;;;;;;;;;;;;;;;;;4332748;33;19935;-68
2022/06/15 06:16:46;;;;;;;;;;;;;;;;;;4331267;33;19983;-69
2022/06/15 06:19:11;;;;;;;;;;;;;;;;;;4324226;33;20361;-69
2022/06/15 06:21:36;;;;;;;;;;;;;;;;;;4318046;33;19939;-69
2022/06/15 06:24:01;;;;;;;;;;;;;;;;;;4317287;33;19944;-69
2022/06/15 06:26:27;;;;;;;;;;;;;;;;;;4317351;33;20420;-69
2022/06/15 06:28:52;;;;;;;;;;;;;;;;;;4318165;33;19974;-68
2022/06/15 06:31:20;;;;;;;;;;;;;;;;;;4316465;33;19989;-68
2022/06/15 06:33:45;;;;;;;;;;;;;;;;;;4317686;33;20356;-68
2022/06/15 06:36:10;;;;;;;;;;;;;;;;;;4317943;33;20298;-69
2022/06/15 06:38:35;;;;;;;;;;;;;;;;;;4317109;33;19940;-68
2022/06/15 06:41:00;;;;;;;;;;;;;;;;;;4317691;33;19936;-68
2022/06/15 06:43:25;;;;;;;;;;;;;;;;;;4303706;33;20002;-68
2022/06/15 06:45:50;;;;;;;;;;;;;;;;;;4318420;33;19939;-69
2022/06/15 06:48:15;;;;;;;;;;;;;;;;;;4317137;33;19935;-68
2022/06/15 06:50:40;;;;;;;;;;;;;;;;;;4317951;33;19936;-68
2022/06/15 06:53:05;;;;;;;;;;;;;;;;;;4303794;33;19939;-68
2022/06/15 06:55:31;;;;;;;;;;;;;;;;;;4318329;33;19948;-68
2022/06/15 06:57:56;;;;;;;;;;;;;;;;;;4318723;33;20282;-69
2022/06/15 07:00:21;;;;;;;;;;;;;;;;;;4317564;33;19935;-68
2022/06/15 07:02:46;;;;;;;;;;;;;;;;;;4318107;33;19989;-68
2022/06/15 07:05:11;;;;;;;;;;;;;;;;;;4318340;33;20318;-68
2022/06/15 07:07:36;;;;;;;;;;;;;;;;;;4318440;33;20436;-68
2022/06/15 07:10:01;;;;;;;;;;;;;;;;;;4318438;33;19959;-68
2022/06/15 07:12:26;;;;;;;;;;;;;;;;;;4317083;33;19985;-68
2022/06/15 07:14:52;;;;;;;;;;;;;;;;;;4317007;33;20065;-69
2022/06/15 07:17:17;;;;;;;;;;;;;;;;;;4303226;33;20323;-70
2022/06/15 07:19:42;;;;;;;;;;;;;;;;;;4316200;33;20065;-69
2022/06/15 07:22:07;;;;;;;;;;;;;;;;;;4331262;33;19939;-69
2022/06/15 07:24:32;;;;;;;;;;;;;;;;;;4332263;33;19935;-69
2022/06/15 07:26:57;;;;;;;;;;;;;;;;;;4331010;33;19950;-68
2022/06/15 07:29:22;;;;;;;;;;;;;;;;;;4331102;33;19955;-68
2022/06/15 07:31:47;;;;;;;;;;;;;;;;;;4332817;33;19938;-69
2022/06/15 07:34:13;;;;;;;;;;;;;;;;;;4333140;33;19945;-69
2022/06/15 07:36:38;;;;;;;;;;;;;;;;;;4318562;33;20380;-69
2022/06/15 07:39:03;;;;;;;;;;;;;;;;;;4331002;33;20302;-69
2022/06/15 07:41:28;;;;;;;;;;;;;;;;;;4317295;33;20359;-70
2022/06/15 07:43:53;;;;;;;;;;;;;;;;;;4331202;33;20344;-69
2022/06/15 07:46:18;;;;;;;;;;;;;;;;;;4319015;33;19943;-69
2022/06/15 07:51:28;;;;;;;;;;;;;;;;;;4332713;33;19999;-68
2022/06/15 07:53:53;;;;;;;;;;;;;;;;;;4332842;33;19969;-69
2022/06/15 07:56:18;;;;;;;;;;;;;;;;;;4318652;33;19991;-68
2022/06/15 07:58:43;;;;;;;;;;;;;;;;;;4332127;33;19939;-69
2022/06/15 08:01:09;;;;;;;;;;;;;;;;;;4332386;33;19989;-68
2022/06/15 08:03:35;;;;;;;;;;;;;;;;;;4319124;33;19944;-68
2022/06/15 08:06:00;;;;;;;;;;;;;;;;;;4331247;33;20061;-68
2022/06/15 08:08:25;;;;;;;;;;;;;;;;;;4319282;33;19974;-68
2022/06/15 08:10:50;;;;;;;;;;;;;;;;;;4331598;33;20336;-67
2022/06/15 08:13:15;;;;;;;;;;;;;;;;;;4331487;33;19975;-68
2022/06/15 08:15:41;;;;;;;;;;;;;;;;;;4330393;33;19938;-68
2022/06/15 08:18:06;;;;;;;;;;;;;;;;;;4326434;33;20459;-68
2022/06/15 08:20:33;;;;;;;;;;;;;;;;;;4317712;33;20410;-68
2022/06/15 08:22:58;;;;;;;;;;;;;;;;;;4317804;33;19935;-69
2022/06/15 08:25:23;;;;;;;;;;;;;;;;;;4316408;33;20026;-69
2022/06/15 08:27:48;;;;;;;;;;;;;;;;;;4317312;33;19936;-68
2022/06/15 08:30:14;;;;;;;;;;;;;;;;;;4303603;33;19935;-69
2022/06/15 08:32:39;;;;;;;;;;;;;;;;;;4316194;33;19958;-68
2022/06/15 08:35:04;;;;;;;;;;;;;;;;;;4317195;33;20058;-68
2022/06/15 08:37:29;;;;;;;;;;;;;;;;;;4316090;33;19935;-69
2022/06/15 08:39:54;;;;;;;;;;;;;;;;;;4315923;33;20002;-70
2022/06/15 08:42:20;;;;;;;;;;;;;;;;;;4317409;33;19935;-69
2022/06/15 08:44:45;;;;;;;;;;;;;;;;;;4315834;33;19977;-68
2022/06/15 08:47:10;;;;;;;;;;;;;;;;;;4302191;33;19987;-69
2022/06/15 08:49:35;;;;;;;;;;;;;;;;;;4318430;33;19938;-69
2022/06/15 08:52:00;;;;;;;;;;;;;;;;;;4330433;33;19981;-67
2022/06/15 08:54:26;;;;;;;;;;;;;;;;;;4319416;33;19938;-68
2022/06/15 08:56:51;;;;;;;;;;;;;;;;;;4331635;33;20234;-68
2022/06/15 08:59:16;;;;;;;;;;;;;;;;;;4330462;33;19935;-69
2022/06/15 09:01:41;;;;;;;;;;;;;;;;;;4333546;33;19935;-69
2022/06/15 09:04:06;;;;;;;;;;;;;;;;;;4333573;33;19978;-69
2022/06/15 09:06:31;;;;;;;;;;;;;;;;;;4333253;33;19958;-69
2022/06/15 09:08:56;;;;;;;;;;;;;;;;;;4334158;33;19978;-68
2022/06/15 09:11:21;;;;;;;;;;;;;;;;;;4332790;33;19939;-69
2022/06/15 09:13:46;;;;;;;;;;;;;;;;;;4333190;33;19998;-68
2022/06/15 09:16:12;;;;;;;;;;;;;;;;;;4334095;33;20306;-68
2022/06/15 09:18:37;;;;;;;;;;;;;;;;;;4326247;33;19951;-69
2022/06/15 09:21:02;;;;;;;;;;;;;;;;;;4319842;33;19952;-68
2022/06/15 09:23:27;;;;;;;;;;;;;;;;;;4318388;33;20392;-69
2022/06/15 09:25:52;;;;;;;;;;;;;;;;;;4318297;33;19951;-68
2022/06/15 09:28:20;;;;;;;;;;;;;;;;;;4306402;33;20349;-68
2022/06/15 09:30:45;;;;;;;;;;;;;;;;;;4317968;33;19948;-69
2022/06/15 09:33:10;;;;;;;;;;;;;;;;;;4319578;33;19931;-69
2022/06/15 09:35:35;;;;;;;;;;;;;;;;;;4319391;33;19943;-69
2022/06/15 09:38:00;;;;;;;;;;;;;;;;;;4319000;33;20290;-70
2022/06/15 09:40:25;;;;;;;;;;;;;;;;;;4319473;33;19991;-69
2022/06/15 09:42:51;;;;;;;;;;;;;;;;;;4317971;33;19947;-68
2022/06/15 09:45:16;;;;;;;;;;;;;;;;;;4317548;33;19992;-68
2022/06/15 09:47:41;;;;;;;;;;;;;;;;;;4322605;33;19943;-69
2022/06/15 09:50:06;;;;;;;;;;;;;;;;;;4319050;33;20026;-69
2022/06/15 09:52:31;;;;;;;;;;;;;;;;;;4334134;33;19947;-69
2022/06/15 09:54:56;;;;;;;;;;;;;;;;;;4326734;33;19987;-69
2022/06/15 09:57:22;;;;;;;;;;;;;;;;;;4303219;33;20306;-68
2022/06/15 09:59:47;;;;;;;;;;;;;;;;;;4305010;33;19987;-69
2022/06/15 10:02:12;;;;;;;;;;;;;;;;;;4303694;33;20376;-68
2022/06/15 10:04:37;;;;;;;;;;;;;;;;;;4302907;33;19975;-68
2022/06/15 10:07:02;;;;;;;;;;;;;;;;;;4303427;33;19936;-69
2022/06/15 10:09:27;;;;;;;;;;;;;;;;;;4304679;33;19975;-69
2022/06/15 10:11:52;;;;;;;;;;;;;;;;;;4303237;33;19939;-69
2022/06/15 10:14:18;;;;;;;;;;;;;;;;;;4304025;33;19964;-69
2022/06/15 10:16:43;;;;;;;;;;;;;;;;;;4289705;33;20266;-69
2022/06/15 10:19:11;;;;;;;;;;;;;;;;;;4330056;33;19950;-68
2022/06/15 10:21:36;;;;;;;;;;;;;;;;;;4333733;33;20062;-70
2022/06/15 10:24:01;;;;;;;;;;;;;;;;;;4318572;33;19939;-70
2022/06/15 10:26:26;;;;;;;;;;;;;;;;;;4333070;33;20099;-69
2022/06/15 10:28:51;;;;;;;;;;;;;;;;;;4333902;33;19939;-69
2022/06/15 10:31:16;;;;;;;;;;;;;;;;;;4320148;33;19943;-68
2022/06/15 10:33:41;;;;;;;;;;;;;;;;;;4332091;33;19939;-70
2022/06/15 10:36:06;;;;;;;;;;;;;;;;;;4320037;33;19958;-69
2022/06/15 10:38:32;;;;;;;;;;;;;;;;;;4331411;33;20285;-70
2022/06/15 10:40:57;;;;;;;;;;;;;;;;;;4332088;33;19994;-68
2022/06/15 10:43:22;;;;;;;;;;;;;;;;;;4320027;33;19947;-69
2022/06/15 10:45:47;;;;;;;;;;;;;;;;;;4331919;33;20352;-69
2022/06/15 10:48:12;;;;;;;;;;;;;;;;;;4332948;33;19943;-68
2022/06/15 10:50:37;;;;;;;;;;;;;;;;;;4318428;33;19950;-69
2022/06/15 10:53:02;;;;;;;;;;;;;;;;;;4331942;33;19939;-69
2022/06/15 11:03:39;;;;;;;;;;;;;;;;;;4332223;33;20237;-69
2022/06/15 11:06:04;;;;;;;;;;;;;;;;;;4332573;33;20250;-70
2022/06/15 11:08:30;;;;;;;;;;;;;;;;;;4333073;33;19954;-69
2022/06/15 11:10:55;;;;;;;;;;;;;;;;;;4329776;33;19943;-69
2022/06/15 11:13:20;;;;;;;;;;;;;;;;;;4332254;33;20208;-69
2022/06/15 11:18:29;;;;;;;;;;;;;;;;;;4320901;33;19943;-68
2022/06/15 11:20:54;;;;;;;;;;;;;;;;;;4318456;33;19936;-69
2022/06/15 11:23:19;;;;;;;;;;;;;;;;;;4303358;33;19954;-69
2022/06/15 11:25:44;;;;;;;;;;;;;;;;;;4317388;33;19939;-69
2022/06/15 11:28:09;;;;;;;;;;;;;;;;;;4316074;33;19954;-69
2022/06/15 11:30:34;;;;;;;;;;;;;;;;;;4316606;33;20250;-69
2022/06/15 11:32:59;;;;;;;;;;;;;;;;;;4317939;33;20326;-68
2022/06/15 11:35:25;;;;;;;;;;;;;;;;;;4317274;33;19991;-68
2022/06/15 11:37:51;;;;;;;;;;;;;;;;;;4318254;33;20287;-68
2022/06/15 11:40:16;;;;;;;;;;;;;;;;;;4317085;33;19951;-69
2022/06/15 11:42:47;;;;;;;;;;;;;;;;;;4317206;33;19935;-69
2022/06/15 11:45:12;;;;;;;;;;;;;;;;;;4303396;33;19939;-69
2022/06/15 11:47:41;;;;;;;;;;;;;;;;;;4304931;33;20011;-68
2022/06/15 11:50:06;;;;;;;;;;;;;;;;;;4303422;33;19990;-69
2022/06/15 11:52:32;;;;;;;;;;;;;;;;;;4301495;33;19955;-69
2022/06/15 11:54:57;;;;;;;;;;;;;;;;;;4300433;33;19978;-69
2022/06/15 11:57:22;;;;;;;;;;;;;;;;;;4301366;33;20270;-69
2022/06/15 11:59:47;;;;;;;;;;;;;;;;;;4302827;33;19971;-69
2022/06/15 12:02:12;;;;;;;;;;;;;;;;;;4299918;33;20003;-69
2022/06/15 12:04:37;;;;;;;;;;;;;;;;;;4303211;33;19990;-69
2022/06/15 12:07:03;;;;;;;;;;;;;;;;;;4302835;33;19948;-68
2022/06/15 12:09:29;;;;;;;;;;;;;;;;;;4303034;33;19988;-70
2022/06/15 12:14:38;;;;;;;;;;;;;;;;;;4320060;33;19970;-70
2022/06/15 12:17:03;;;;;;;;;;;;;;;;;;4331955;33;19991;-68
2022/06/15 12:19:29;;;;;;;;;;;;;;;;;;4317099;33;19951;-68
2022/06/15 12:21:54;;;;;;;;;;;;;;;;;;4330367;33;20261;-69
2022/06/15 12:24:19;;;;;;;;;;;;;;;;;;4330787;33;19935;-69
2022/06/15 12:26:44;;;;;;;;;;;;;;;;;;4330552;33;19974;-69
2022/06/15 12:29:09;;;;;;;;;;;;;;;;;;4330428;33;19939;-69
2022/06/15 12:31:34;;;;;;;;;;;;;;;;;;4318761;33;19953;-69
2022/06/15 12:34:00;;;;;;;;;;;;;;;;;;4330166;33;20340;-69
2022/06/15 12:36:25;;;;;;;;;;;;;;;;;;4331661;33;19942;-70
2022/06/15 12:38:50;;;;;;;;;;;;;;;;;;4330087;33;20005;-69
2022/06/15 12:43:59;;;;;;;;;;;;;;;;;;4327744;33;20301;-69
2022/06/15 12:46:25;;;;;;;;;;;;;;;;;;4302243;33;20297;-69
2022/06/15 12:48:50;;;;;;;;;;;;;;;;;;4317202;33;19947;-70
2022/06/15 12:51:15;;;;;;;;;;;;;;;;;;4317098;33;19939;-70
2022/06/15 12:53:40;;;;;;;;;;;;;;;;;;4315189;33;19940;-70
2022/06/15 12:56:06;;;;;;;;;;;;;;;;;;4317227;33;19954;-69
2022/06/15 12:58:31;;;;;;;;;;;;;;;;;;4303731;33;19950;-69
2022/06/15 13:00:56;;;;;;;;;;;;;;;;;;4317517;33;20258;-68
2022/06/15 13:03:21;;;;;;;;;;;;;;;;;;4316434;33;19966;-69
2022/06/15 13:05:46;;;;;;;;;;;;;;;;;;4302123;33;19975;-68
2022/06/15 13:08:12;;;;;;;;;;;;;;;;;;4315568;33;20360;-68
2022/06/15 13:10:37;;;;;;;;;;;;;;;;;;4317169;33;19975;-69
2022/06/15 13:13:02;;;;;;;;;;;;;;;;;;4317590;33;19947;-68
2022/06/15 13:15:27;;;;;;;;;;;;;;;;;;4331583;33;19954;-69
2022/06/15 13:18:05;;;;;;;;;;;;;;;;;;4330190;33;19965;-69
2022/06/15 13:20:30;;;;;;;;;;;;;;;;;;4332062;33;19949;-69
2022/06/15 13:22:56;;;;;;;;;;;;;;;;;;4331695;33;20287;-70
2022/06/15 13:25:21;;;;;;;;;;;;;;;;;;4331556;33;19935;-69
2022/06/15 13:27:46;;;;;;;;;;;;;;;;;;4329608;33;20020;-70
2022/06/15 13:30:13;;;;;;;;;;;;;;;;;;4317302;33;20106;-69
2022/06/15 13:32:38;;;;;;;;;;;;;;;;;;4329775;33;19954;-68
2022/06/15 13:35:03;;;;;;;;;;;;;;;;;;4316117;33;19950;-69
2022/06/15 13:37:30;;;;;;;;;;;;;;;;;;4316521;33;20277;-70
2022/06/15 13:39:55;;;;;;;;;;;;;;;;;;4329949;33;20359;-69
2022/06/15 13:42:20;;;;;;;;;;;;;;;;;;4317162;33;20324;-69
2022/06/15 13:44:45;;;;;;;;;;;;;;;;;;4320328;33;19975;-69
2022/06/15 13:47:10;;;;;;;;;;;;;;;;;;4304239;33;19955;-69
2022/06/15 13:49:36;;;;;;;;;;;;;;;;;;4319314;33;19947;-69
2022/06/15 13:52:01;;;;;;;;;;;;;;;;;;4318662;33;19947;-69
2022/06/15 13:54:26;;;;;;;;;;;;;;;;;;4318622;33;19967;-69
2022/06/15 13:56:51;;;;;;;;;;;;;;;;;;4317277;33;19979;-69
2022/06/15 13:59:16;;;;;;;;;;;;;;;;;;4318827;33;19949;-69
2022/06/15 14:01:41;;;;;;;;;;;;;;;;;;4318212;33;20032;-69
2022/06/15 14:04:06;;;;;;;;;;;;;;;;;;4319700;33;19982;-69
2022/06/15 14:06:32;;;;;;;;;;;;;;;;;;4319375;33;19946;-69
2022/06/15 14:08:57;;;;;;;;;;;;;;;;;;4318007;33;19975;-69
2022/06/15 14:11:22;;;;;;;;;;;;;;;;;;4318119;33;19986;-68
2022/06/15 14:13:47;;;;;;;;;;;;;;;;;;4322907;33;20042;-69
2022/06/15 14:16:12;;;;;;;;;;;;;;;;;;4332063;33;20289;-68
2022/06/15 14:18:37;;;;;;;;;;;;;;;;;;4333278;33;19943;-68
2022/06/15 14:21:02;;;;;;;;;;;;;;;;;;4318458;33;19943;-69
2022/06/15 14:23:27;;;;;;;;;;;;;;;;;;4331787;33;20014;-69
2022/06/15 14:25:52;;;;;;;;;;;;;;;;;;4333486;33;20055;-69
2022/06/15 14:28:18;;;;;;;;;;;;;;;;;;4331774;33;19967;-69
2022/06/15 14:30:43;;;;;;;;;;;;;;;;;;4332860;33;19950;-70
2022/06/15 14:33:08;;;;;;;;;;;;;;;;;;4333375;33;19939;-70
2022/06/15 14:35:33;;;;;;;;;;;;;;;;;;4331652;33;20093;-68
2022/06/15 14:38:00;;;;;;;;;;;;;;;;;;4332082;33;19970;-69
2022/06/15 14:40:25;;;;;;;;;;;;;;;;;;4331613;33;19989;-69
2022/06/15 14:42:57;;;;;;;;;;;;;;;;;;4331225;33;19939;-69
2022/06/15 14:45:22;;;;;;;;;;;;;;;;;;4317243;33;19943;-70
2022/06/15 14:47:47;;;;;;;;;;;;;;;;;;4317106;33;19950;-69
2022/06/15 14:50:12;;;;;;;;;;;;;;;;;;4318527;33;19935;-69
2022/06/15 14:52:37;;;;;;;;;;;;;;;;;;4318909;33;19979;-69
2022/06/15 14:55:03;;;;;;;;;;;;;;;;;;4303827;33;19954;-69
2022/06/15 14:57:28;;;;;;;;;;;;;;;;;;4303612;33;19970;-69
2022/06/15 14:59:54;;;;;;;;;;;;;;;;;;4319034;33;19940;-69
2022/06/15 15:02:19;;;;;;;;;;;;;;;;;;4318361;33;19935;-70
2022/06/15 15:04:44;;;;;;;;;;;;;;;;;;4316605;33;19965;-70
2022/06/15 15:09:53;;;;;;;;;;;;;;;;;;4318064;33;19995;-68
2022/06/15 15:12:21;;;;;;;;;;;;;;;;;;4316733;33;19951;-68
2022/06/15 15:14:46;;;;;;;;;;;;;;;;;;4331977;33;20279;-69
2022/06/15 15:17:12;;;;;;;;;;;;;;;;;;4333314;33;19969;-69
2022/06/15 15:19:38;;;;;;;;;;;;;;;;;;4331149;33;19974;-69
2022/06/15 15:22:03;;;;;;;;;;;;;;;;;;4333068;33;19977;-69
2022/06/15 15:24:29;;;;;;;;;;;;;;;;;;4318314;33;19935;-69
2022/06/15 15:26:54;;;;;;;;;;;;;;;;;;4317596;33;19957;-70
2022/06/15 15:34:47;;;;;;;;;;;;;;;;;;4332830;33;20387;-69
2022/06/15 15:39:56;;;;;;;;;;;;;;;;;;4330870;33;19949;-70
2022/06/15 15:42:21;;;;;;;;;;;;;;;;;;4333074;33;19936;-70
2022/06/15 15:44:46;;;;;;;;;;;;;;;;;;4317774;33;19935;-69
2022/06/15 15:47:11;;;;;;;;;;;;;;;;;;4317835;33;19973;-68
2022/06/15 15:49:36;;;;;;;;;;;;;;;;;;4317543;33;19958;-69
2022/06/15 15:52:02;;;;;;;;;;;;;;;;;;4316295;33;20281;-70
2022/06/15 15:54:27;;;;;;;;;;;;;;;;;;4316306;33;19936;-69
2022/06/15 15:56:52;;;;;;;;;;;;;;;;;;4317457;33;19935;-70
2022/06/15 15:59:20;;;;;;;;;;;;;;;;;;4317649;33;19935;-69
2022/06/15 16:01:45;;;;;;;;;;;;;;;;;;4317717;33;19935;-69
2022/06/15 16:04:10;;;;;;;;;;;;;;;;;;4316446;33;19936;-70
2022/06/15 16:06:36;;;;;;;;;;;;;;;;;;4316193;33;19970;-70
2022/06/15 16:09:01;;;;;;;;;;;;;;;;;;4304083;33;19950;-69
2022/06/15 16:11:26;;;;;;;;;;;;;;;;;;4304170;33;20151;-69
2022/06/15 16:13:51;;;;;;;;;;;;;;;;;;4325701;33;19939;-69
2022/06/15 16:16:16;;;;;;;;;;;;;;;;;;4331303;33;19962;-69
2022/06/15 16:18:42;;;;;;;;;;;;;;;;;;4331891;33;19958;-69
2022/06/15 16:21:07;;;;;;;;;;;;;;;;;;4318619;33;20026;-68
2022/06/15 16:23:32;;;;;;;;;;;;;;;;;;4317830;33;19947;-69
2022/06/15 16:25:57;;;;;;;;;;;;;;;;;;4317281;33;19985;-69
2022/06/15 16:28:22;;;;;;;;;;;;;;;;;;4330489;33;20289;-69
2022/06/15 16:30:48;;;;;;;;;;;;;;;;;;4318964;33;19971;-68
2022/06/15 16:33:13;;;;;;;;;;;;;;;;;;4316433;33;19949;-69
2022/06/15 16:35:38;;;;;;;;;;;;;;;;;;4318625;33;20024;-69
2022/06/15 16:38:03;;;;;;;;;;;;;;;;;;4331717;33;19974;-69
2022/06/15 16:40:28;;;;;;;;;;;;;;;;;;4331087;33;19949;-69
2022/06/15 16:42:53;;;;;;;;;;;;;;;;;;4323921;33;20011;-69
2022/06/15 16:45:18;;;;;;;;;;;;;;;;;;4302216;33;20349;-69
2022/06/15 16:47:43;;;;;;;;;;;;;;;;;;4302542;33;19973;-69
2022/06/15 16:50:08;;;;;;;;;;;;;;;;;;4315348;33;19955;-69
2022/06/15 16:52:34;;;;;;;;;;;;;;;;;;4316002;33;19965;-69
2022/06/15 16:54:59;;;;;;;;;;;;;;;;;;4316117;33;20313;-69
2022/06/15 16:57:24;;;;;;;;;;;;;;;;;;4316797;33;19962;-69
2022/06/15 16:59:49;;;;;;;;;;;;;;;;;;4303724;33;19939;-68
2022/06/15 17:02:15;;;;;;;;;;;;;;;;;;4315769;33;20380;-69
2022/06/15 17:04:43;;;;;;;;;;;;;;;;;;4317896;33;20344;-69